sensor_id;sensor_type;location;lat;lon;timestamp;pressure;altitude;pressure_sealevel;temperature;humidity
19576;BME280;41589;51.196;7.074;2023-05-08T00:03:20;99345.56;;;16.22;100.00
19576;BME280;41589;51.196;7.074;2023-05-08T00:08:24;99349.97;;;16.23;100.00
19576;BME280;41589;51.196;7.074;2023-05-08T00:13:27;99355.00;;;16.34;100.00
19576;BME280;41589;51.196;7.074;2023-05-08T00:18:31;99361.53;;;16.40;100.00
19576;BME280;41589;51.196;7.074;2023-05-08T00:23:39;99350.13;;;16.34;100.00
19576;BME280;41589;51.196;7.074;2023-05-08T00:28:40;99359.13;;;16.33;100.00
19576;BME280;41589;51.196;7.074;2023-05-08T00:33:44;99365.75;;;16.24;100.00
19576;BME280;41589;51.196;7.074;2023-05-08T00:38:48;99370.66;;;16.24;100.00
19576;BME280;41589;51.196;7.074;2023-05-08T00:43:49;99358.97;;;16.22;100.00
19576;BME280;41589;51.196;7.074;2023-05-08T00:48:52;99363.09;;;16.21;100.00
19576;BME280;41589;51.196;7.074;2023-05-08T00:53:53;99361.75;;;16.16;100.00
19576;BME280;41589;51.196;7.074;2023-05-08T00:58:54;99362.66;;;16.07;100.00
19576;BME280;41589;51.196;7.074;2023-05-08T01:03:57;99350.38;;;15.96;100.00
19576;BME280;41589;51.196;7.074;2023-05-08T01:09:04;99367.59;;;15.92;100.00
19576;BME280;41589;51.196;7.074;2023-05-08T01:20:04;99370.38;;;15.86;100.00
19576;BME280;41589;51.196;7.074;2023-05-08T01:31:11;99367.38;;;15.75;100.00
19576;BME280;41589;51.196;7.074;2023-05-08T01:36:44;99370.56;;;15.68;100.00
19576;BME280;41589;51.196;7.074;2023-05-08T01:41:57;99376.56;;;15.70;100.00
19576;BME280;41589;51.196;7.074;2023-05-08T01:47:04;99377.84;;;15.69;100.00
19576;BME280;41589;51.196;7.074;2023-05-08T01:53:09;99372.63;;;15.68;100.00
19576;BME280;41589;51.196;7.074;2023-05-08T01:58:05;99369.31;;;15.69;100.00
19576;BME280;41589;51.196;7.074;2023-05-08T02:03:16;99382.56;;;15.72;100.00
19576;BME280;41589;51.196;7.074;2023-05-08T02:08:28;99384.69;;;15.77;100.00
19576;BME280;41589;51.196;7.074;2023-05-08T02:13:44;99396.03;;;15.77;100.00
19576;BME280;41589;51.196;7.074;2023-05-08T02:19:00;99396.53;;;15.76;100.00
19576;BME280;41589;51.196;7.074;2023-05-08T02:24:05;99393.47;;;15.79;100.00
19576;BME280;41589;51.196;7.074;2023-05-08T02:29:14;99396.03;;;15.77;100.00
19576;BME280;41589;51.196;7.074;2023-05-08T02:34:24;99397.69;;;15.69;100.00
19576;BME280;41589;51.196;7.074;2023-05-08T02:39:32;99394.66;;;15.58;100.00
19576;BME280;41589;51.196;7.074;2023-05-08T02:45:03;99405.81;;;15.62;100.00
19576;BME280;41589;51.196;7.074;2023-05-08T02:55:53;99408.44;;;15.80;100.00
19576;BME280;41589;51.196;7.074;2023-05-08T03:06:39;99399.13;;;15.94;100.00
19576;BME280;41589;51.196;7.074;2023-05-08T03:11:46;99403.72;;;15.92;100.00
19576;BME280;41589;51.196;7.074;2023-05-08T03:16:51;99399.03;;;15.88;100.00
19576;BME280;41589;51.196;7.074;2023-05-08T03:21:54;99402.00;;;15.79;100.00
19576;BME280;41589;51.196;7.074;2023-05-08T03:26:57;99397.38;;;15.82;100.00
19576;BME280;41589;51.196;7.074;2023-05-08T03:31:59;99404.16;;;15.70;100.00
19576;BME280;41589;51.196;7.074;2023-05-08T03:37:01;99399.66;;;15.63;100.00
19576;BME280;41589;51.196;7.074;2023-05-08T03:42:02;99398.88;;;15.63;100.00
19576;BME280;41589;51.196;7.074;2023-05-08T03:47:03;99404.22;;;15.60;100.00
19576;BME280;41589;51.196;7.074;2023-05-08T03:52:05;99395.53;;;15.49;100.00
19576;BME280;41589;51.196;7.074;2023-05-08T03:57:06;99392.91;;;15.46;100.00
19576;BME280;41589;51.196;7.074;2023-05-08T04:02:37;99389.19;;;15.25;100.00
19576;BME280;41589;51.196;7.074;2023-05-08T04:07:48;99397.22;;;15.26;100.00
19576;BME280;41589;51.196;7.074;2023-05-08T04:12:56;99408.75;;;15.23;100.00
19576;BME280;41589;51.196;7.074;2023-05-08T04:18:09;99409.44;;;15.18;100.00
19576;BME280;41589;51.196;7.074;2023-05-08T04:23:15;99419.63;;;15.10;100.00
19576;BME280;41589;51.196;7.074;2023-05-08T04:28:18;99422.25;;;15.13;100.00
19576;BME280;41589;51.196;7.074;2023-05-08T04:33:20;99426.75;;;15.20;100.00
19576;BME280;41589;51.196;7.074;2023-05-08T04:38:21;99421.25;;;15.16;100.00
19576;BME280;41589;51.196;7.074;2023-05-08T04:43:21;99414.31;;;15.17;100.00
19576;BME280;41589;51.196;7.074;2023-05-08T04:48:22;99414.44;;;15.23;100.00
19576;BME280;41589;51.196;7.074;2023-05-08T04:53:24;99421.16;;;15.25;100.00
19576;BME280;41589;51.196;7.074;2023-05-08T04:58:25;99424.28;;;15.27;100.00
19576;BME280;41589;51.196;7.074;2023-05-08T05:03:28;99429.09;;;15.36;100.00
19576;BME280;41589;51.196;7.074;2023-05-08T05:08:31;99433.50;;;15.22;100.00
19576;BME280;41589;51.196;7.074;2023-05-08T05:13:34;99438.19;;;15.25;100.00
19576;BME280;41589;51.196;7.074;2023-05-08T05:18:35;99445.25;;;15.30;100.00
19576;BME280;41589;51.196;7.074;2023-05-08T05:23:36;99447.88;;;15.34;100.00
19576;BME280;41589;51.196;7.074;2023-05-08T05:28:36;99448.16;;;15.36;100.00
19576;BME280;41589;51.196;7.074;2023-05-08T05:33:37;99457.56;;;15.42;100.00
19576;BME280;41589;51.196;7.074;2023-05-08T05:38:37;99458.25;;;15.51;100.00
19576;BME280;41589;51.196;7.074;2023-05-08T05:43:38;99458.91;;;15.61;100.00
19576;BME280;41589;51.196;7.074;2023-05-08T05:48:39;99466.19;;;15.62;100.00
19576;BME280;41589;51.196;7.074;2023-05-08T05:53:42;99472.81;;;15.59;100.00
19576;BME280;41589;51.196;7.074;2023-05-08T05:58:49;99475.56;;;15.53;100.00
19576;BME280;41589;51.196;7.074;2023-05-08T06:03:51;99480.38;;;15.62;100.00
19576;BME280;41589;51.196;7.074;2023-05-08T06:08:51;99477.91;;;15.55;100.00
19576;BME280;41589;51.196;7.074;2023-05-08T06:13:52;99482.13;;;15.59;100.00
19576;BME280;41589;51.196;7.074;2023-05-08T06:18:52;99491.16;;;15.73;100.00
19576;BME280;41589;51.196;7.074;2023-05-08T06:23:53;99488.13;;;15.76;100.00
19576;BME280;41589;51.196;7.074;2023-05-08T06:28:53;99486.28;;;15.73;100.00
19576;BME280;41589;51.196;7.074;2023-05-08T06:33:54;99479.88;;;15.64;100.00
19576;BME280;41589;51.196;7.074;2023-05-08T06:38:54;99473.59;;;15.59;100.00
19576;BME280;41589;51.196;7.074;2023-05-08T06:43:57;99479.19;;;15.54;100.00
19576;BME280;41589;51.196;7.074;2023-05-08T06:49:00;99486.81;;;15.48;100.00
19576;BME280;41589;51.196;7.074;2023-05-08T06:54:00;99482.31;;;15.56;100.00
19576;BME280;41589;51.196;7.074;2023-05-08T06:59:01;99480.56;;;15.58;100.00
19576;BME280;41589;51.196;7.074;2023-05-08T07:04:02;99483.44;;;15.73;100.00
19576;BME280;41589;51.196;7.074;2023-05-08T07:09:02;99467.44;;;15.91;100.00
19576;BME280;41589;51.196;7.074;2023-05-08T07:14:02;99462.25;;;15.89;100.00
19576;BME280;41589;51.196;7.074;2023-05-08T07:19:03;99479.28;;;16.04;100.00
19576;BME280;41589;51.196;7.074;2023-05-08T07:24:04;99484.06;;;16.12;100.00
19576;BME280;41589;51.196;7.074;2023-05-08T07:29:04;99488.47;;;16.13;100.00
19576;BME280;41589;51.196;7.074;2023-05-08T07:34:04;99484.03;;;16.27;100.00
19576;BME280;41589;51.196;7.074;2023-05-08T07:39:06;99491.81;;;16.47;100.00
19576;BME280;41589;51.196;7.074;2023-05-08T07:44:06;99494.50;;;16.71;100.00
19576;BME280;41589;51.196;7.074;2023-05-08T07:49:07;99500.19;;;16.91;100.00
19576;BME280;41589;51.196;7.074;2023-05-08T07:54:08;99509.91;;;17.05;100.00
19576;BME280;41589;51.196;7.074;2023-05-08T07:59:08;99504.03;;;17.09;100.00
19576;BME280;41589;51.196;7.074;2023-05-08T08:04:08;99512.84;;;17.11;100.00
19576;BME280;41589;51.196;7.074;2023-05-08T08:09:09;99515.25;;;17.18;100.00
19576;BME280;41589;51.196;7.074;2023-05-08T08:14:10;99515.81;;;17.22;100.00
19576;BME280;41589;51.196;7.074;2023-05-08T08:19:14;99524.84;;;17.20;100.00
19576;BME280;41589;51.196;7.074;2023-05-08T08:24:14;99520.72;;;17.21;100.00
19576;BME280;41589;51.196;7.074;2023-05-08T08:29:15;99526.19;;;17.25;100.00
19576;BME280;41589;51.196;7.074;2023-05-08T08:34:18;99523.41;;;17.30;100.00
19576;BME280;41589;51.196;7.074;2023-05-08T08:39:19;99514.38;;;17.32;100.00
19576;BME280;41589;51.196;7.074;2023-05-08T08:44:20;99516.22;;;17.35;100.00
19576;BME280;41589;51.196;7.074;2023-05-08T08:49:28;99516.59;;;17.48;100.00
19576;BME280;41589;51.196;7.074;2023-05-08T08:54:32;99513.94;;;17.59;100.00
19576;BME280;41589;51.196;7.074;2023-05-08T08:59:36;99517.94;;;17.73;100.00
19576;BME280;41589;51.196;7.074;2023-05-08T09:04:37;99518.81;;;17.85;100.00
19576;BME280;41589;51.196;7.074;2023-05-08T09:09:38;99524.38;;;18.00;100.00
19576;BME280;41589;51.196;7.074;2023-05-08T09:14:48;99520.03;;;18.36;100.00
19576;BME280;41589;51.196;7.074;2023-05-08T09:19:50;99524.88;;;18.61;100.00
19576;BME280;41589;51.196;7.074;2023-05-08T09:30:04;99523.50;;;18.94;100.00
19576;BME280;41589;51.196;7.074;2023-05-08T09:35:09;99523.28;;;19.03;100.00
19576;BME280;41589;51.196;7.074;2023-05-08T09:40:20;99524.63;;;19.13;100.00
19576;BME280;41589;51.196;7.074;2023-05-08T09:50:29;99527.56;;;19.30;97.91
19576;BME280;41589;51.196;7.074;2023-05-08T09:55:47;99546.78;;;19.35;99.38
19576;BME280;41589;51.196;7.074;2023-05-08T10:00:48;99540.31;;;19.40;96.86
19576;BME280;41589;51.196;7.074;2023-05-08T10:05:50;99534.88;;;19.37;95.92
19576;BME280;41589;51.196;7.074;2023-05-08T10:10:51;99531.75;;;19.46;95.32
19576;BME280;41589;51.196;7.074;2023-05-08T10:15:56;99527.88;;;19.54;93.76
19576;BME280;41589;51.196;7.074;2023-05-08T10:20:59;99532.88;;;19.71;95.34
19576;BME280;41589;51.196;7.074;2023-05-08T10:26:12;99527.69;;;19.75;94.19
19576;BME280;41589;51.196;7.074;2023-05-08T10:31:16;99523.81;;;19.95;92.89
19576;BME280;41589;51.196;7.074;2023-05-08T10:36:17;99518.38;;;20.19;91.95
19576;BME280;41589;51.196;7.074;2023-05-08T10:41:19;99519.66;;;20.52;91.37
19576;BME280;41589;51.196;7.074;2023-05-08T10:46:47;99497.75;;;20.76;92.30
19576;BME280;41589;51.196;7.074;2023-05-08T10:57:19;99485.03;;;21.36;90.72
19576;BME280;41589;51.196;7.074;2023-05-08T11:02:30;99491.75;;;21.44;86.28
19576;BME280;41589;51.196;7.074;2023-05-08T11:07:56;99490.97;;;21.43;88.46
19576;BME280;41589;51.196;7.074;2023-05-08T11:13:01;99491.03;;;21.32;82.00
19576;BME280;41589;51.196;7.074;2023-05-08T11:18:07;99489.47;;;21.31;81.17
19576;BME280;41589;51.196;7.074;2023-05-08T11:28:32;99490.22;;;20.85;81.64
19576;BME280;41589;51.196;7.074;2023-05-08T11:33:44;99488.13;;;20.80;82.42
19576;BME280;41589;51.196;7.074;2023-05-08T11:39:05;99491.00;;;20.74;84.51
19576;BME280;41589;51.196;7.074;2023-05-08T11:44:18;99482.50;;;20.52;83.38
19576;BME280;41589;51.196;7.074;2023-05-08T11:49:28;99479.84;;;20.65;83.80
19576;BME280;41589;51.196;7.074;2023-05-08T11:54:45;99494.69;;;20.58;81.96
19576;BME280;41589;51.196;7.074;2023-05-08T11:59:54;99494.19;;;20.48;80.87
19576;BME280;41589;51.196;7.074;2023-05-08T12:04:57;99490.75;;;20.61;81.39
19576;BME280;41589;51.196;7.074;2023-05-08T12:10:06;99493.34;;;20.70;80.66
19576;BME280;41589;51.196;7.074;2023-05-08T12:15:09;99495.91;;;20.79;81.72
19576;BME280;41589;51.196;7.074;2023-05-08T12:20:18;99485.81;;;20.84;81.09
19576;BME280;41589;51.196;7.074;2023-05-08T12:25:19;99497.97;;;20.95;81.47
19576;BME280;41589;51.196;7.074;2023-05-08T12:30:19;99490.19;;;20.90;79.31
19576;BME280;41589;51.196;7.074;2023-05-08T12:35:20;99484.22;;;20.71;80.49
19576;BME280;41589;51.196;7.074;2023-05-08T12:40:29;99486.59;;;20.73;81.09
19576;BME280;41589;51.196;7.074;2023-05-08T12:45:34;99480.84;;;20.79;80.21
19576;BME280;41589;51.196;7.074;2023-05-08T12:50:42;99482.94;;;20.84;80.97
19576;BME280;41589;51.196;7.074;2023-05-08T12:56:09;99478.00;;;20.73;81.53
19576;BME280;41589;51.196;7.074;2023-05-08T13:01:15;99483.28;;;20.46;79.26
19576;BME280;41589;51.196;7.074;2023-05-08T13:06:20;99484.63;;;20.23;81.04
19576;BME280;41589;51.196;7.074;2023-05-08T13:11:35;99477.59;;;20.07;80.74
19576;BME280;41589;51.196;7.074;2023-05-08T13:16:44;99481.72;;;19.61;80.86
19576;BME280;41589;51.196;7.074;2023-05-08T13:21:48;99479.09;;;19.41;82.62
19576;BME280;41589;51.196;7.074;2023-05-08T13:26:48;99471.03;;;19.40;83.24
19576;BME280;41589;51.196;7.074;2023-05-08T13:31:49;99470.78;;;19.38;83.38
19576;BME280;41589;51.196;7.074;2023-05-08T13:36:50;99464.72;;;19.24;84.53
19576;BME280;41589;51.196;7.074;2023-05-08T13:41:58;99463.44;;;19.20;86.21
19576;BME280;41589;51.196;7.074;2023-05-08T13:46:58;99451.50;;;19.16;85.96
19576;BME280;41589;51.196;7.074;2023-05-08T13:52:00;99441.88;;;19.13;86.56
19576;BME280;41589;51.196;7.074;2023-05-08T13:57:13;99431.53;;;19.16;87.25
19576;BME280;41589;51.196;7.074;2023-05-08T14:02:38;99421.63;;;19.00;87.46
19576;BME280;41589;51.196;7.074;2023-05-08T14:07:51;99432.00;;;18.97;87.41
19576;BME280;41589;51.196;7.074;2023-05-08T14:13:07;99424.47;;;19.00;86.69
19576;BME280;41589;51.196;7.074;2023-05-08T14:18:11;99410.13;;;18.78;85.82
19576;BME280;41589;51.196;7.074;2023-05-08T14:23:20;99420.22;;;18.73;85.40
19576;BME280;41589;51.196;7.074;2023-05-08T14:28:24;99415.81;;;18.66;85.34
19576;BME280;41589;51.196;7.074;2023-05-08T14:33:35;99399.44;;;18.56;86.36
19576;BME280;41589;51.196;7.074;2023-05-08T14:38:45;99409.22;;;18.49;85.24
19576;BME280;41589;51.196;7.074;2023-05-08T14:43:54;99410.31;;;18.63;86.07
19576;BME280;41589;51.196;7.074;2023-05-08T14:48:55;99401.81;;;18.68;86.23
19576;BME280;41589;51.196;7.074;2023-05-08T14:54:00;99408.25;;;18.63;85.56
19576;BME280;41589;51.196;7.074;2023-05-08T14:59:06;99411.66;;;18.73;86.10
19576;BME280;41589;51.196;7.074;2023-05-08T15:04:09;99410.44;;;18.85;85.47
19576;BME280;41589;51.196;7.074;2023-05-08T15:09:11;99416.97;;;19.08;85.15
19576;BME280;41589;51.196;7.074;2023-05-08T15:14:17;99427.91;;;19.21;84.44
19576;BME280;41589;51.196;7.074;2023-05-08T15:19:17;99423.00;;;19.32;83.83
19576;BME280;41589;51.196;7.074;2023-05-08T15:24:18;99424.84;;;19.41;83.68
19576;BME280;41589;51.196;7.074;2023-05-08T15:29:18;99422.53;;;19.62;82.96
19576;BME280;41589;51.196;7.074;2023-05-08T15:34:19;99410.34;;;19.73;83.09
19576;BME280;41589;51.196;7.074;2023-05-08T15:39:20;99417.84;;;19.93;83.10
19576;BME280;41589;51.196;7.074;2023-05-08T15:44:20;99410.84;;;20.16;82.18
19576;BME280;41589;51.196;7.074;2023-05-08T15:49:21;99406.13;;;20.30;80.86
19576;BME280;41589;51.196;7.074;2023-05-08T15:54:25;99404.28;;;20.38;79.94
19576;BME280;41589;51.196;7.074;2023-05-08T15:59:25;99393.38;;;20.42;79.97
19576;BME280;41589;51.196;7.074;2023-05-08T16:04:26;99389.41;;;20.62;78.76
19576;BME280;41589;51.196;7.074;2023-05-08T16:09:26;99389.34;;;20.73;78.67
19576;BME280;41589;51.196;7.074;2023-05-08T16:14:26;99382.81;;;20.78;77.94
19576;BME280;41589;51.196;7.074;2023-05-08T16:19:27;99380.25;;;20.69;77.47
19576;BME280;41589;51.196;7.074;2023-05-08T16:24:27;99386.56;;;20.56;77.59
19576;BME280;41589;51.196;7.074;2023-05-08T16:29:28;99378.47;;;20.60;77.84
19576;BME280;41589;51.196;7.074;2023-05-08T16:34:28;99369.38;;;20.62;77.74
19576;BME280;41589;51.196;7.074;2023-05-08T16:39:29;99366.75;;;20.64;77.13
19576;BME280;41589;51.196;7.074;2023-05-08T16:44:29;99355.84;;;20.62;76.97
19576;BME280;41589;51.196;7.074;2023-05-08T16:49:29;99345.44;;;20.65;76.78
19576;BME280;41589;51.196;7.074;2023-05-08T16:54:30;99356.09;;;20.64;75.83
19576;BME280;41589;51.196;7.074;2023-05-08T16:59:30;99343.66;;;20.62;75.81
19576;BME280;41589;51.196;7.074;2023-05-08T17:04:31;99344.72;;;20.53;74.73
19576;BME280;41589;51.196;7.074;2023-05-08T17:09:32;99355.69;;;20.43;74.66
19576;BME280;41589;51.196;7.074;2023-05-08T17:14:32;99360.13;;;20.33;73.86
19576;BME280;41589;51.196;7.074;2023-05-08T17:19:33;99359.09;;;20.25;73.74
19576;BME280;41589;51.196;7.074;2023-05-08T17:24:33;99359.13;;;20.19;73.86
19576;BME280;41589;51.196;7.074;2023-05-08T17:29:36;99367.19;;;20.15;73.75
19576;BME280;41589;51.196;7.074;2023-05-08T17:34:36;99370.81;;;20.16;72.95
19576;BME280;41589;51.196;7.074;2023-05-08T17:39:37;99366.41;;;19.98;72.96
19576;BME280;41589;51.196;7.074;2023-05-08T17:44:37;99372.94;;;19.76;72.94
19576;BME280;41589;51.196;7.074;2023-05-08T17:49:37;99377.34;;;19.66;72.94
19576;BME280;41589;51.196;7.074;2023-05-08T17:54:38;99371.66;;;19.60;73.12
19576;BME280;41589;51.196;7.074;2023-05-08T17:59:38;99367.25;;;19.59;72.94
19576;BME280;41589;51.196;7.074;2023-05-08T18:04:38;99381.50;;;19.54;73.04
19576;BME280;41589;51.196;7.074;2023-05-08T18:09:39;99375.81;;;19.43;73.73
19576;BME280;41589;51.196;7.074;2023-05-08T18:14:39;99378.94;;;19.39;73.46
19576;BME280;41589;51.196;7.074;2023-05-08T18:19:40;99371.66;;;19.27;72.82
19576;BME280;41589;51.196;7.074;2023-05-08T18:24:40;99388.47;;;19.19;74.16
19576;BME280;41589;51.196;7.074;2023-05-08T18:29:41;99390.28;;;19.17;74.33
19576;BME280;41589;51.196;7.074;2023-05-08T18:34:41;99387.13;;;19.03;75.33
19576;BME280;41589;51.196;7.074;2023-05-08T18:39:42;99390.25;;;19.11;77.28
19576;BME280;41589;51.196;7.074;2023-05-08T18:44:42;99384.28;;;19.03;76.55
19576;BME280;41589;51.196;7.074;2023-05-08T18:49:42;99378.81;;;18.94;76.42
19576;BME280;41589;51.196;7.074;2023-05-08T18:54:43;99376.72;;;18.89;75.61
19576;BME280;41589;51.196;7.074;2023-05-08T18:59:43;99360.84;;;18.71;75.91
19576;BME280;41589;51.196;7.074;2023-05-08T19:04:44;99358.78;;;18.72;75.61
19576;BME280;41589;51.196;7.074;2023-05-08T19:09:45;99361.34;;;18.53;75.93
19576;BME280;41589;51.196;7.074;2023-05-08T19:14:45;99360.00;;;18.49;76.22
19576;BME280;41589;51.196;7.074;2023-05-08T19:19:45;99369.84;;;18.48;76.03
19576;BME280;41589;51.196;7.074;2023-05-08T19:24:46;99374.94;;;18.38;76.21
19576;BME280;41589;51.196;7.074;2023-05-08T19:29:46;99370.81;;;18.39;76.23
19576;BME280;41589;51.196;7.074;2023-05-08T19:34:46;99369.72;;;18.31;76.52
19576;BME280;41589;51.196;7.074;2023-05-08T19:39:47;99368.94;;;18.30;76.83
19576;BME280;41589;51.196;7.074;2023-05-08T19:44:47;99365.03;;;18.22;76.65
19576;BME280;41589;51.196;7.074;2023-05-08T19:49:48;99365.53;;;18.15;76.77
19576;BME280;41589;51.196;7.074;2023-05-08T19:54:49;99352.53;;;18.08;76.88
19576;BME280;41589;51.196;7.074;2023-05-08T19:59:49;99354.78;;;17.99;77.18
19576;BME280;41589;51.196;7.074;2023-05-08T20:04:49;99352.50;;;18.03;77.20
19576;BME280;41589;51.196;7.074;2023-05-08T20:09:50;99355.88;;;18.01;77.43
19576;BME280;41589;51.196;7.074;2023-05-08T20:14:50;99350.06;;;17.90;77.48
19576;BME280;41589;51.196;7.074;2023-05-08T20:19:52;99362.03;;;17.94;77.58
19576;BME280;41589;51.196;7.074;2023-05-08T20:24:52;99346.75;;;17.92;77.96
19576;BME280;41589;51.196;7.074;2023-05-08T20:29:53;99348.31;;;17.93;77.47
19576;BME280;41589;51.196;7.074;2023-05-08T20:34:53;99347.28;;;17.96;77.41
19576;BME280;41589;51.196;7.074;2023-05-08T20:39:53;99355.28;;;17.92;77.74
19576;BME280;41589;51.196;7.074;2023-05-08T20:44:54;99366.44;;;17.95;77.59
19576;BME280;41589;51.196;7.074;2023-05-08T20:49:54;99351.66;;;17.91;77.62
19576;BME280;41589;51.196;7.074;2023-05-08T20:54:54;99349.00;;;17.82;77.54
19576;BME280;41589;51.196;7.074;2023-05-08T20:59:55;99341.72;;;17.75;77.82
19576;BME280;41589;51.196;7.074;2023-05-08T21:04:55;99327.75;;;17.77;77.75
19576;BME280;41589;51.196;7.074;2023-05-08T21:09:55;99330.06;;;17.79;77.84
19576;BME280;41589;51.196;7.074;2023-05-08T21:14:56;99323.31;;;17.71;77.95
19576;BME280;41589;51.196;7.074;2023-05-08T21:19:59;99331.56;;;17.69;77.52
19576;BME280;41589;51.196;7.074;2023-05-08T21:25:00;99323.78;;;17.64;77.91
19576;BME280;41589;51.196;7.074;2023-05-08T21:30:04;99318.81;;;17.58;77.60
19576;BME280;41589;51.196;7.074;2023-05-08T21:35:12;99315.13;;;17.52;78.47
19576;BME280;41589;51.196;7.074;2023-05-08T21:40:17;99311.72;;;17.48;78.07
19576;BME280;41589;51.196;7.074;2023-05-08T21:45:20;99308.84;;;17.43;78.46
19576;BME280;41589;51.196;7.074;2023-05-08T21:50:21;99300.06;;;17.46;78.66
19576;BME280;41589;51.196;7.074;2023-05-08T21:55:22;99300.63;;;17.50;78.54
19576;BME280;41589;51.196;7.074;2023-05-08T22:00:28;99302.25;;;17.57;78.34
19576;BME280;41589;51.196;7.074;2023-05-08T22:05:35;99289.19;;;17.45;78.12
19576;BME280;41589;51.196;7.074;2023-05-08T22:10:36;99294.34;;;17.41;78.64
19576;BME280;41589;51.196;7.074;2023-05-08T22:15:36;99286.13;;;17.48;78.21
19576;BME280;41589;51.196;7.074;2023-05-08T22:20:40;99287.38;;;17.42;78.62
19576;BME280;41589;51.196;7.074;2023-05-08T22:25:40;99289.13;;;17.33;78.72
19576;BME280;41589;51.196;7.074;2023-05-08T22:30:41;99284.25;;;17.40;78.80
19576;BME280;41589;51.196;7.074;2023-05-08T22:35:44;99277.47;;;17.31;78.67
19576;BME280;41589;51.196;7.074;2023-05-08T22:40:45;99270.75;;;17.29;79.03
19576;BME280;41589;51.196;7.074;2023-05-08T22:45:46;99273.59;;;17.29;78.69
19576;BME280;41589;51.196;7.074;2023-05-08T22:50:50;99268.06;;;17.20;78.53
19576;BME280;41589;51.196;7.074;2023-05-08T22:55:52;99262.13;;;17.18;78.96
19576;BME280;41589;51.196;7.074;2023-05-08T23:00:58;99256.38;;;17.12;78.90
19576;BME280;41589;51.196;7.074;2023-05-08T23:05:59;99254.50;;;17.03;79.27
19576;BME280;41589;51.196;7.074;2023-05-08T23:11:04;99252.22;;;17.08;79.08
19576;BME280;41589;51.196;7.074;2023-05-08T23:16:10;99248.81;;;17.03;79.13
19576;BME280;41589;51.196;7.074;2023-05-08T23:21:19;99228.38;;;16.99;79.34
19576;BME280;41589;51.196;7.074;2023-05-08T23:26:20;99225.53;;;17.05;79.18
19576;BME280;41589;51.196;7.074;2023-05-08T23:31:24;99214.34;;;16.96;79.39
19576;BME280;41589;51.196;7.074;2023-05-08T23:36:30;99209.75;;;16.98;79.46
19576;BME280;41589;51.196;7.074;2023-05-08T23:41:33;99190.03;;;16.89;79.33
19576;BME280;41589;51.196;7.074;2023-05-08T23:47:04;99200.06;;;16.85;79.75
19576;BME280;41589;51.196;7.074;2023-05-08T23:52:05;99189.97;;;16.84;79.83
19576;BME280;41589;51.196;7.074;2023-05-08T23:57:09;99192.28;;;16.80;79.83
